Time;durP1;ratioP1;P1;durP2;ratioP2;P2;SDS_P1;SDS_P2;PMS_P1;PMS_P2;Temp;Humidity;BMP_temperature;BMP_pressure;BME280_temperature;BME280_humidity;BME280_pressure;Samples;Min_cycle;Max_cycle;Signal;HPM_P1;HPM_P2
2023/06/21 00:00:30;;;;;;;13.48;7.05;;;;;;;;;;5025127;28;20155;-70
2023/06/21 00:02:56;;;;;;;15.15;7.82;;;;;;;;;;5024400;28;20038;-70
2023/06/21 00:05:21;;;;;;;12.68;7.63;;;;;;;;;;5024376;28;20049;-70
2023/06/21 00:07:48;;;;;;;14.70;7.85;;;;;;;;;;5024682;28;20038;-71
2023/06/21 00:10:13;;;;;;;12.60;6.75;;;;;;;;;;5027625;28;20025;-70
2023/06/21 00:12:39;;;;;;;10.98;7.53;;;;;;;;;;5028836;28;20096;-70
2023/06/21 00:15:05;;;;;;;12.55;7.70;;;;;;;;;;5028995;28;20029;-70
2023/06/21 00:17:30;;;;;;;11.10;6.55;;;;;;;;;;5029635;28;20080;-70
2023/06/21 00:19:56;;;;;;;13.10;7.32;;;;;;;;;;5034926;28;20033;-70
2023/06/21 00:22:22;;;;;;;11.43;7.18;;;;;;;;;;5042422;28;20049;-71
2023/06/21 00:24:51;;;;;;;10.60;6.82;;;;;;;;;;5040245;28;20371;-70
2023/06/21 00:27:18;;;;;;;40.20;6.07;;;;;;;;;;5030022;28;20037;-70
2023/06/21 00:29:43;;;;;;;9.77;5.88;;;;;;;;;;5027063;28;20134;-70
2023/06/21 00:32:08;;;;;;;10.05;6.35;;;;;;;;;;5028405;28;20542;-70
2023/06/21 00:34:35;;;;;;;13.10;6.55;;;;;;;;;;5028395;28;20458;-71
2023/06/21 00:37:02;;;;;;;11.75;6.72;;;;;;;;;;5028124;28;20347;-70
2023/06/21 00:39:28;;;;;;;15.02;6.28;;;;;;;;;;5028473;28;20076;-70
2023/06/21 00:41:53;;;;;;;11.85;6.43;;;;;;;;;;5027700;28;20118;-70
2023/06/21 00:44:19;;;;;;;10.80;5.75;;;;;;;;;;5020340;28;20119;-71
2023/06/21 00:46:44;;;;;;;9.13;5.68;;;;;;;;;;5027649;28;20044;-70
2023/06/21 00:49:09;;;;;;;9.25;5.85;;;;;;;;;;5028112;28;20030;-71
2023/06/21 00:51:38;;;;;;;10.60;6.57;;;;;;;;;;5027642;28;20052;-71
2023/06/21 00:54:05;;;;;;;12.90;6.78;;;;;;;;;;5027906;28;20124;-70
2023/06/21 00:56:33;;;;;;;10.43;6.75;;;;;;;;;;5027998;28;20040;-71
2023/06/21 00:58:58;;;;;;;11.30;6.03;;;;;;;;;;5026312;28;20040;-71
2023/06/21 01:01:26;;;;;;;12.25;6.97;;;;;;;;;;5027467;28;20033;-70
2023/06/21 01:03:52;;;;;;;13.18;7.13;;;;;;;;;;5026782;28;20556;-70
2023/06/21 01:06:21;;;;;;;10.63;7.68;;;;;;;;;;5027611;28;20029;-70
2023/06/21 01:09:06;;;;;;;14.27;7.70;;;;;;;;;;5027015;28;20048;-71
2023/06/21 01:11:41;;;;;;;11.32;7.10;;;;;;;;;;5027478;28;20073;-70
2023/06/21 01:14:13;;;;;;;12.52;7.68;;;;;;;;;;5027691;28;20056;-71
2023/06/21 01:16:43;;;;;;;14.93;7.25;;;;;;;;;;5027498;28;20428;-71
2023/06/21 01:19:24;;;;;;;12.43;7.35;;;;;;;;;;5026934;28;20411;-70
2023/06/21 01:21:51;;;;;;;14.55;7.20;;;;;;;;;;5027401;28;20053;-70
2023/06/21 01:24:25;;;;;;;12.25;7.80;;;;;;;;;;5026420;28;20079;-71
2023/06/21 01:27:06;;;;;;;15.57;7.85;;;;;;;;;;5027462;28;20033;-71
2023/06/21 01:29:33;;;;;;;10.68;7.07;;;;;;;;;;5026883;28;20087;-70
2023/06/21 01:32:01;;;;;;;13.98;8.13;;;;;;;;;;5027345;28;20037;-70
2023/06/21 01:34:28;;;;;;;10.98;7.53;;;;;;;;;;5027451;28;20042;-71
2023/06/21 01:36:54;;;;;;;11.10;7.25;;;;;;;;;;5027415;28;20029;-71
2023/06/21 01:39:19;;;;;;;11.77;7.10;;;;;;;;;;5023105;28;20046;-69
2023/06/21 01:41:46;;;;;;;11.32;7.25;;;;;;;;;;5013054;28;20037;-70
2023/06/21 01:44:13;;;;;;;16.00;7.38;;;;;;;;;;5015809;28;20046;-70
2023/06/21 01:46:39;;;;;;;12.20;8.10;;;;;;;;;;5024636;28;20148;-70
2023/06/21 01:49:06;;;;;;;14.73;8.32;;;;;;;;;;5039624;28;20048;-70
2023/06/21 01:51:35;;;;;;;14.13;7.68;;;;;;;;;;5028633;28;20021;-70
2023/06/21 01:54:00;;;;;;;13.23;7.80;;;;;;;;;;5026605;28;20679;-71
2023/06/21 01:56:27;;;;;;;13.63;8.75;;;;;;;;;;5026148;28;20037;-70
2023/06/21 01:58:53;;;;;;;14.52;9.48;;;;;;;;;;5026306;28;20045;-70
2023/06/21 02:01:19;;;;;;;15.05;8.48;;;;;;;;;;5026076;28;20048;-70
2023/06/21 02:03:51;;;;;;;14.05;8.27;;;;;;;;;;5026687;28;20056;-71
2023/06/21 02:06:20;;;;;;;19.42;9.70;;;;;;;;;;5025791;28;20564;-70
2023/06/21 02:08:47;;;;;;;16.88;9.10;;;;;;;;;;5023890;28;20037;-70
2023/06/21 02:11:13;;;;;;;18.73;9.77;;;;;;;;;;5025710;28;20091;-70
2023/06/21 02:13:38;;;;;;;17.50;9.32;;;;;;;;;;5024982;28;20041;-71
2023/06/21 02:16:04;;;;;;;19.85;9.40;;;;;;;;;;5026205;28;20029;-70
2023/06/21 02:18:29;;;;;;;18.63;9.90;;;;;;;;;;5026498;28;20036;-70
2023/06/21 02:20:57;;;;;;;18.17;9.90;;;;;;;;;;5025679;28;20588;-70
2023/06/21 02:23:22;;;;;;;21.08;10.25;;;;;;;;;;5025805;28;20063;-70
2023/06/21 02:25:47;;;;;;;18.85;9.77;;;;;;;;;;5025233;28;20046;-70
2023/06/21 02:28:13;;;;;;;20.23;9.95;;;;;;;;;;5026198;28;20025;-70
2023/06/21 02:30:38;;;;;;;17.88;9.40;;;;;;;;;;5025682;28;20025;-70
2023/06/21 02:33:03;;;;;;;17.70;9.45;;;;;;;;;;5025138;28;20045;-71
2023/06/21 02:35:29;;;;;;;18.42;10.07;;;;;;;;;;5024634;28;20037;-70
2023/06/21 02:37:55;;;;;;;18.67;10.10;;;;;;;;;;5025351;28;20064;-71
2023/06/21 02:40:20;;;;;;;20.25;9.80;;;;;;;;;;5025644;28;20435;-70
2023/06/21 02:42:46;;;;;;;18.30;10.07;;;;;;;;;;5026694;28;20055;-70
2023/06/21 02:45:11;;;;;;;16.92;10.00;;;;;;;;;;5024835;28;20029;-71
2023/06/21 02:47:37;;;;;;;26.58;9.93;;;;;;;;;;5025651;28;20466;-70
2023/06/21 02:50:03;;;;;;;15.77;9.48;;;;;;;;;;5024287;28;20091;-70
2023/06/21 02:52:29;;;;;;;18.38;9.63;;;;;;;;;;5022655;28;20515;-71
2023/06/21 02:54:55;;;;;;;19.90;9.82;;;;;;;;;;5025902;28;20048;-71
2023/06/21 02:57:20;;;;;;;20.33;10.48;;;;;;;;;;5025621;28;20605;-71
2023/06/21 02:59:48;;;;;;;21.08;10.18;;;;;;;;;;5024047;28;20084;-71
2023/06/21 03:02:13;;;;;;;20.90;10.38;;;;;;;;;;5025156;28;20042;-70
2023/06/21 03:04:39;;;;;;;19.38;10.57;;;;;;;;;;5025410;28;20056;-70
2023/06/21 03:07:05;;;;;;;19.92;11.02;;;;;;;;;;5025610;28;20029;-71
2023/06/21 03:09:31;;;;;;;18.80;11.00;;;;;;;;;;5027609;28;20029;-70
2023/06/21 03:11:56;;;;;;;21.77;11.70;;;;;;;;;;5032904;28;20048;-70
2023/06/21 03:14:21;;;;;;;18.17;11.52;;;;;;;;;;5040172;28;20042;-70
2023/06/21 03:16:47;;;;;;;20.73;11.35;;;;;;;;;;5034487;28;20034;-70
2023/06/21 03:19:12;;;;;;;20.58;11.38;;;;;;;;;;5026051;28;20518;-70
2023/06/21 03:21:38;;;;;;;23.95;10.88;;;;;;;;;;5026181;28;20037;-70
2023/06/21 03:24:03;;;;;;;21.83;11.00;;;;;;;;;;5025113;28;20071;-71
2023/06/21 03:26:29;;;;;;;21.83;11.23;;;;;;;;;;5025291;28;20087;-70
2023/06/21 03:28:54;;;;;;;20.23;10.80;;;;;;;;;;5025203;28;20038;-71
2023/06/21 03:31:20;;;;;;;20.92;11.40;;;;;;;;;;5024329;28;20049;-71
2023/06/21 03:33:46;;;;;;;18.30;10.52;;;;;;;;;;5025316;28;20029;-70
2023/06/21 03:36:12;;;;;;;24.65;10.13;;;;;;;;;;5024303;28;20041;-70
2023/06/21 03:38:37;;;;;;;22.17;10.98;;;;;;;;;;5025029;28;20046;-71
2023/06/21 03:41:02;;;;;;;20.48;10.80;;;;;;;;;;5024456;28;20033;-71
2023/06/21 03:43:28;;;;;;;20.35;10.73;;;;;;;;;;5024722;28;20034;-71
2023/06/21 03:45:53;;;;;;;18.15;10.68;;;;;;;;;;5025358;28;20672;-70
2023/06/21 03:48:18;;;;;;;20.98;10.52;;;;;;;;;;5021569;28;20030;-71
2023/06/21 03:50:43;;;;;;;19.15;10.43;;;;;;;;;;5024603;28;20419;-70
2023/06/21 03:53:09;;;;;;;18.40;9.27;;;;;;;;;;5024743;28;20037;-71
2023/06/21 03:55:37;;;;;;;19.40;10.75;;;;;;;;;;5024114;28;20084;-70
2023/06/21 03:58:03;;;;;;;18.05;10.65;;;;;;;;;;5024563;28;20563;-71
2023/06/21 04:00:28;;;;;;;19.52;10.30;;;;;;;;;;5024633;28;20022;-70
2023/06/21 04:02:54;;;;;;;18.13;10.57;;;;;;;;;;5024713;28;20065;-71
2023/06/21 04:05:19;;;;;;;19.15;10.98;;;;;;;;;;5023836;28;20045;-71
2023/06/21 04:07:46;;;;;;;25.77;12.15;;;;;;;;;;5025146;28;20038;-71
2023/06/21 04:10:13;;;;;;;24.80;12.02;;;;;;;;;;5024449;28;20109;-70
2023/06/21 04:12:39;;;;;;;19.10;11.27;;;;;;;;;;5015839;28;20079;-70
2023/06/21 04:15:05;;;;;;;25.65;11.57;;;;;;;;;;5024689;28;20045;-70
2023/06/21 04:17:31;;;;;;;23.50;12.30;;;;;;;;;;5024450;28;20043;-70
2023/06/21 04:19:57;;;;;;;21.77;11.35;;;;;;;;;;5024641;28;20029;-71
2023/06/21 04:22:24;;;;;;;20.70;11.77;;;;;;;;;;5024715;28;20038;-70
2023/06/21 04:24:53;;;;;;;23.58;11.57;;;;;;;;;;5025281;28;20031;-70
2023/06/21 04:27:18;;;;;;;18.17;10.93;;;;;;;;;;5024088;28;20581;-71
2023/06/21 04:29:43;;;;;;;19.35;11.18;;;;;;;;;;5024607;28;20041;-71
2023/06/21 04:32:09;;;;;;;19.88;11.32;;;;;;;;;;5024816;28;20037;-70
2023/06/21 04:34:35;;;;;;;21.23;11.15;;;;;;;;;;5025789;28;20056;-70
2023/06/21 04:37:05;;;;;;;21.48;11.13;;;;;;;;;;5028879;28;20033;-71
2023/06/21 04:39:31;;;;;;;19.30;10.98;;;;;;;;;;5036815;28;20087;-70
2023/06/21 04:42:00;;;;;;;20.10;10.93;;;;;;;;;;5030961;28;20040;-71
2023/06/21 04:44:27;;;;;;;26.48;11.68;;;;;;;;;;5024197;28;20033;-70
2023/06/21 04:46:54;;;;;;;21.42;11.23;;;;;;;;;;5024397;28;20092;-71
2023/06/21 04:49:19;;;;;;;21.40;11.48;;;;;;;;;;5023825;28;20538;-71
2023/06/21 04:51:45;;;;;;;24.35;11.57;;;;;;;;;;5021864;28;20072;-70
2023/06/21 04:54:10;;;;;;;20.77;11.77;;;;;;;;;;5018359;28;20068;-70
2023/06/21 04:56:36;;;;;;;22.20;11.52;;;;;;;;;;5027661;28;20037;-70
2023/06/21 04:59:03;;;;;;;24.67;11.55;;;;;;;;;;5027251;28;20093;-71
2023/06/21 05:01:32;;;;;;;23.23;10.95;;;;;;;;;;5027302;28;20087;-71
2023/06/21 05:03:58;;;;;;;20.25;11.02;;;;;;;;;;5027557;28;20064;-70
2023/06/21 05:06:25;;;;;;;17.52;10.55;;;;;;;;;;5027634;28;20037;-70
2023/06/21 05:08:51;;;;;;;21.02;10.63;;;;;;;;;;5027098;28;20037;-70
2023/06/21 05:11:18;;;;;;;21.73;11.75;;;;;;;;;;5027240;28;20091;-70
2023/06/21 05:13:43;;;;;;;21.40;9.98;;;;;;;;;;5026915;28;20033;-70
2023/06/21 05:16:08;;;;;;;21.25;11.13;;;;;;;;;;5026804;28;20557;-71
2023/06/21 05:18:35;;;;;;;18.75;10.10;;;;;;;;;;5027923;28;20041;-70
2023/06/21 05:21:00;;;;;;;18.67;10.07;;;;;;;;;;5014167;28;20038;-70
2023/06/21 05:23:26;;;;;;;19.98;9.90;;;;;;;;;;5026722;28;20041;-70
2023/06/21 05:25:51;;;;;;;15.27;8.95;;;;;;;;;;5026652;28;20045;-71
2023/06/21 05:28:16;;;;;;;18.73;8.68;;;;;;;;;;5027043;28;20025;-70
2023/06/21 05:30:41;;;;;;;15.90;9.05;;;;;;;;;;5026943;28;20602;-70
2023/06/21 05:33:07;;;;;;;18.45;9.90;;;;;;;;;;5026919;28;20767;-71
2023/06/21 05:35:32;;;;;;;17.42;8.80;;;;;;;;;;5026787;28;20453;-70
2023/06/21 05:37:57;;;;;;;17.63;8.98;;;;;;;;;;5026998;28;20056;-71
2023/06/21 05:40:23;;;;;;;14.82;8.77;;;;;;;;;;5026586;28;20037;-70
2023/06/21 05:42:48;;;;;;;16.95;8.85;;;;;;;;;;5027270;28;20021;-72
2023/06/21 05:45:14;;;;;;;17.80;9.30;;;;;;;;;;5026590;28;20041;-72
2023/06/21 05:47:39;;;;;;;17.63;9.05;;;;;;;;;;5027059;28;20060;-72
2023/06/21 05:50:05;;;;;;;15.73;8.43;;;;;;;;;;5026451;28;20065;-71
2023/06/21 05:52:30;;;;;;;18.10;9.00;;;;;;;;;;5026210;28;20042;-72
2023/06/21 05:54:56;;;;;;;16.20;8.23;;;;;;;;;;5027634;28;20154;-71
2023/06/21 05:57:21;;;;;;;16.30;8.25;;;;;;;;;;5026280;28;20065;-71
2023/06/21 05:59:47;;;;;;;19.95;8.48;;;;;;;;;;5027426;28;20030;-71
2023/06/21 06:02:13;;;;;;;16.85;8.57;;;;;;;;;;5029088;28;20057;-71
2023/06/21 06:04:39;;;;;;;14.13;7.32;;;;;;;;;;5032267;28;20046;-71
2023/06/21 06:07:05;;;;;;;19.80;7.75;;;;;;;;;;5030699;28;20036;-71
2023/06/21 06:09:30;;;;;;;14.73;7.75;;;;;;;;;;5020727;28;20616;-70
2023/06/21 06:11:56;;;;;;;15.68;7.65;;;;;;;;;;5022402;28;20034;-70
2023/06/21 06:14:23;;;;;;;24.00;7.18;;;;;;;;;;5026094;28;20037;-71
2023/06/21 06:16:48;;;;;;;18.70;7.88;;;;;;;;;;5028374;28;20522;-72
2023/06/21 06:19:13;;;;;;;14.75;7.50;;;;;;;;;;5020197;28;20032;-72
2023/06/21 06:21:40;;;;;;;12.63;6.03;;;;;;;;;;5030649;28;20067;-72
2023/06/21 06:24:05;;;;;;;13.45;5.93;;;;;;;;;;5024115;28;20049;-72
2023/06/21 06:26:31;;;;;;;8.75;5.30;;;;;;;;;;5026230;28;20037;-72
2023/06/21 06:28:56;;;;;;;9.55;5.53;;;;;;;;;;5025289;28;20049;-72
2023/06/21 06:31:26;;;;;;;10.38;5.35;;;;;;;;;;5025250;28;20461;-72
2023/06/21 06:33:52;;;;;;;12.20;5.38;;;;;;;;;;5026197;28;20028;-71
2023/06/21 06:36:17;;;;;;;8.85;5.20;;;;;;;;;;5025738;28;20033;-72
2023/06/21 06:38:46;;;;;;;9.55;5.18;;;;;;;;;;5025120;28;20474;-72
2023/06/21 06:41:12;;;;;;;10.85;5.35;;;;;;;;;;5024999;28;20044;-72
2023/06/21 06:43:37;;;;;;;9.85;5.38;;;;;;;;;;5012589;28;20037;-72
2023/06/21 06:46:02;;;;;;;8.80;5.32;;;;;;;;;;5025246;28;20029;-72
2023/06/21 06:48:28;;;;;;;10.13;5.53;;;;;;;;;;5025900;28;20029;-72
2023/06/21 06:50:53;;;;;;;9.57;5.22;;;;;;;;;;5025374;28;20046;-72
2023/06/21 06:53:19;;;;;;;10.65;4.90;;;;;;;;;;5023469;28;20040;-71
2023/06/21 06:55:44;;;;;;;8.10;4.65;;;;;;;;;;5010612;28;20041;-71
2023/06/21 06:58:10;;;;;;;9.82;5.00;;;;;;;;;;5017602;28;20032;-71
2023/06/21 07:00:35;;;;;;;13.23;5.32;;;;;;;;;;5018906;28;20164;-71
2023/06/21 07:03:00;;;;;;;10.45;6.63;;;;;;;;;;5024758;28;20045;-72
2023/06/21 07:05:26;;;;;;;9.52;6.25;;;;;;;;;;5018841;28;20065;-72
2023/06/21 07:07:53;;;;;;;12.70;7.38;;;;;;;;;;5024200;28;20630;-71
2023/06/21 07:10:19;;;;;;;10.93;6.50;;;;;;;;;;5017130;28;20037;-72
2023/06/21 07:12:45;;;;;;;13.38;8.68;;;;;;;;;;5016153;28;20056;-72
2023/06/21 07:15:10;;;;;;;13.13;10.00;;;;;;;;;;5017041;28;20189;-72
2023/06/21 07:17:35;;;;;;;13.82;9.90;;;;;;;;;;5017943;28;20045;-72
2023/06/21 07:20:01;;;;;;;14.48;10.00;;;;;;;;;;5016145;28;20045;-72
2023/06/21 07:22:26;;;;;;;17.33;10.57;;;;;;;;;;5018146;28;20038;-72
2023/06/21 07:24:52;;;;;;;16.75;12.02;;;;;;;;;;5016463;28;20025;-72
2023/06/21 07:27:17;;;;;;;19.65;11.13;;;;;;;;;;5019605;28;20066;-72
2023/06/21 07:29:43;;;;;;;18.77;10.20;;;;;;;;;;5038464;28;20507;-72
2023/06/21 07:32:09;;;;;;;23.23;12.95;;;;;;;;;;5032174;28;20046;-72
2023/06/21 07:34:34;;;;;;;27.15;12.85;;;;;;;;;;5030282;28;20033;-72
2023/06/21 07:36:59;;;;;;;17.65;11.68;;;;;;;;;;5024440;28;20395;-72
2023/06/21 07:39:25;;;;;;;18.65;11.25;;;;;;;;;;5020193;28;20079;-72
2023/06/21 07:41:50;;;;;;;14.35;9.85;;;;;;;;;;5023214;28;20559;-72
2023/06/21 07:44:17;;;;;;;13.77;8.82;;;;;;;;;;5021557;28;20044;-72
2023/06/21 07:46:43;;;;;;;12.27;8.88;;;;;;;;;;5014715;28;20065;-72
2023/06/21 07:49:08;;;;;;;13.77;8.88;;;;;;;;;;5022493;28;20142;-72
2023/06/21 07:51:34;;;;;;;11.43;8.05;;;;;;;;;;5021754;28;20115;-72
2023/06/21 07:53:59;;;;;;;13.60;8.27;;;;;;;;;;5024306;28;20708;-71
2023/06/21 07:56:24;;;;;;;11.00;7.35;;;;;;;;;;5023394;28;20514;-72
2023/06/21 07:58:50;;;;;;;13.48;7.85;;;;;;;;;;5024080;28;20118;-71
2023/06/21 08:01:15;;;;;;;15.57;9.15;;;;;;;;;;5017240;28;20029;-71
2023/06/21 08:03:40;;;;;;;14.20;10.60;;;;;;;;;;5007898;28;20037;-71
2023/06/21 08:06:06;;;;;;;16.25;9.57;;;;;;;;;;5014576;28;20045;-71
2023/06/21 08:08:31;;;;;;;15.20;9.85;;;;;;;;;;5020497;28;20049;-71
2023/06/21 08:10:56;;;;;;;14.45;9.95;;;;;;;;;;5024301;28;20214;-71
2023/06/21 08:13:22;;;;;;;18.25;9.73;;;;;;;;;;5024024;28;20029;-71
2023/06/21 08:15:51;;;;;;;12.48;8.30;;;;;;;;;;5024115;28;20121;-71
2023/06/21 08:18:16;;;;;;;13.35;8.50;;;;;;;;;;5022623;28;20065;-71
2023/06/21 08:20:42;;;;;;;11.88;8.50;;;;;;;;;;5023611;28;20083;-71
2023/06/21 08:23:08;;;;;;;11.82;7.90;;;;;;;;;;5024450;28;20515;-71
2023/06/21 08:25:35;;;;;;;13.32;8.32;;;;;;;;;;5023306;28;20855;-71
2023/06/21 08:28:00;;;;;;;11.20;7.93;;;;;;;;;;5023554;28;20511;-71
2023/06/21 08:30:25;;;;;;;16.45;9.10;;;;;;;;;;5019197;28;20133;-71
2023/06/21 08:32:51;;;;;;;15.07;9.00;;;;;;;;;;5022576;28;20037;-71
2023/06/21 08:35:16;;;;;;;14.27;8.05;;;;;;;;;;5018026;28;20030;-71
2023/06/21 08:37:54;;;;;;;12.57;8.10;;;;;;;;;;5023857;28;20042;-71
2023/06/21 08:40:24;;;;;;;14.63;8.88;;;;;;;;;;5016824;28;20018;-71
2023/06/21 08:42:50;;;;;;;12.77;8.18;;;;;;;;;;5017326;28;20021;-71
2023/06/21 08:45:15;;;;;;;10.95;7.40;;;;;;;;;;5005422;28;20412;-71
2023/06/21 08:47:41;;;;;;;12.32;7.40;;;;;;;;;;5025251;28;20038;-71
2023/06/21 08:50:08;;;;;;;11.52;7.50;;;;;;;;;;5027627;28;20551;-71
2023/06/21 08:52:35;;;;;;;15.68;8.50;;;;;;;;;;5028297;28;20043;-71
2023/06/21 08:55:05;;;;;;;12.70;7.38;;;;;;;;;;5028903;28;20052;-72
2023/06/21 08:57:38;;;;;;;10.80;6.75;;;;;;;;;;5038635;28;20033;-71
2023/06/21 09:00:07;;;;;;;11.20;6.53;;;;;;;;;;5042177;28;20041;-71
2023/06/21 09:02:41;;;;;;;9.25;6.40;;;;;;;;;;5024829;28;20049;-72
2023/06/21 09:05:14;;;;;;;8.02;5.70;;;;;;;;;;5020866;28;20052;-71
2023/06/21 09:07:41;;;;;;;11.60;6.75;;;;;;;;;;5014570;28;20108;-72
2023/06/21 09:10:08;;;;;;;8.93;6.30;;;;;;;;;;5026886;28;20109;-72
2023/06/21 09:12:34;;;;;;;13.68;5.85;;;;;;;;;;5025859;28;20068;-72
2023/06/21 09:15:00;;;;;;;10.82;6.35;;;;;;;;;;5027162;28;20458;-72
2023/06/21 09:17:26;;;;;;;9.05;5.10;;;;;;;;;;5022732;28;20667;-72
2023/06/21 09:19:52;;;;;;;8.30;5.38;;;;;;;;;;5015464;28;20037;-72
2023/06/21 09:22:18;;;;;;;7.68;4.38;;;;;;;;;;5022282;28;20063;-72
2023/06/21 09:24:44;;;;;;;6.40;4.55;;;;;;;;;;5026370;28;20116;-72
2023/06/21 09:27:10;;;;;;;8.68;4.95;;;;;;;;;;5026604;28;20749;-72
2023/06/21 09:29:35;;;;;;;9.57;6.53;;;;;;;;;;5026405;28;20038;-72
2023/06/21 09:32:01;;;;;;;8.45;5.18;;;;;;;;;;5026318;28;20037;-72
2023/06/21 09:34:27;;;;;;;10.20;6.57;;;;;;;;;;5026321;28;20063;-72
2023/06/21 09:36:53;;;;;;;7.72;5.10;;;;;;;;;;5026039;28;20044;-72
2023/06/21 09:39:22;;;;;;;9.15;5.82;;;;;;;;;;5026513;28;20037;-72
2023/06/21 09:41:47;;;;;;;6.72;4.93;;;;;;;;;;5025817;28;20909;-72
2023/06/21 09:44:13;;;;;;;7.78;4.60;;;;;;;;;;5026227;28;20037;-70
2023/06/21 09:46:40;;;;;;;8.45;5.38;;;;;;;;;;5021178;28;20044;-72
2023/06/21 09:49:07;;;;;;;7.82;4.82;;;;;;;;;;5018431;28;20033;-72
2023/06/21 09:51:33;;;;;;;6.50;4.93;;;;;;;;;;5026059;28;20064;-72
2023/06/21 09:54:04;;;;;;;10.23;5.45;;;;;;;;;;5026466;28;20068;-72
2023/06/21 09:56:32;;;;;;;8.30;5.88;;;;;;;;;;5013021;28;20055;-72
2023/06/21 09:58:58;;;;;;;10.93;5.20;;;;;;;;;;5025775;28;20063;-72
2023/06/21 10:01:24;;;;;;;7.70;4.80;;;;;;;;;;5025651;28;20067;-71
2023/06/21 10:03:49;;;;;;;6.38;4.78;;;;;;;;;;5025952;28;20103;-72
2023/06/21 10:06:18;;;;;;;6.22;5.03;;;;;;;;;;5025671;28;20038;-72
2023/06/21 10:08:43;;;;;;;8.38;5.40;;;;;;;;;;5026007;28;20125;-72
2023/06/21 10:11:09;;;;;;;8.98;5.57;;;;;;;;;;5025289;28;20120;-72
2023/06/21 10:13:38;;;;;;;8.98;5.53;;;;;;;;;;5025883;28;20064;-71
2023/06/21 10:16:04;;;;;;;8.43;5.85;;;;;;;;;;5025872;28;20040;-71
2023/06/21 10:18:30;;;;;;;10.68;5.53;;;;;;;;;;5025688;28;20084;-71
2023/06/21 10:21:03;;;;;;;10.05;5.53;;;;;;;;;;5022674;28;20541;-71
2023/06/21 10:23:34;;;;;;;8.13;5.50;;;;;;;;;;5025540;28;20042;-71
2023/06/21 10:26:05;;;;;;;10.20;6.60;;;;;;;;;;5029597;28;20041;-71
2023/06/21 10:28:36;;;;;;;11.73;6.15;;;;;;;;;;5023736;28;20043;-71
2023/06/21 10:31:02;;;;;;;8.95;6.63;;;;;;;;;;5022259;28;20561;-71
2023/06/21 10:33:30;;;;;;;7.90;6.20;;;;;;;;;;5024983;28;20499;-71
2023/06/21 10:35:59;;;;;;;10.00;5.97;;;;;;;;;;5022914;28;20745;-71
2023/06/21 10:38:34;;;;;;;8.40;6.10;;;;;;;;;;5017831;28;20038;-71
2023/06/21 10:41:01;;;;;;;11.65;6.10;;;;;;;;;;5018200;28;20068;-71
2023/06/21 10:43:27;;;;;;;7.85;5.90;;;;;;;;;;5019963;28;20073;-71
2023/06/21 10:45:55;;;;;;;9.40;5.93;;;;;;;;;;5017344;28;20045;-71
2023/06/21 10:48:21;;;;;;;8.25;5.43;;;;;;;;;;5020079;28;20037;-71
2023/06/21 10:50:48;;;;;;;6.93;5.00;;;;;;;;;;5016171;28;20045;-71
2023/06/21 10:53:17;;;;;;;7.93;4.65;;;;;;;;;;5015336;28;20037;-71
2023/06/21 10:55:43;;;;;;;7.68;4.38;;;;;;;;;;5016724;28;20049;-71
2023/06/21 10:58:10;;;;;;;6.88;4.43;;;;;;;;;;5013686;28;20022;-71
2023/06/21 11:00:35;;;;;;;6.05;4.20;;;;;;;;;;5016773;28;20021;-71
2023/06/21 11:03:01;;;;;;;6.72;4.55;;;;;;;;;;5012374;28;20709;-71
2023/06/21 11:05:27;;;;;;;5.28;4.07;;;;;;;;;;5014351;28;20068;-71
2023/06/21 11:08:01;;;;;;;6.70;5.20;;;;;;;;;;5015790;28;20124;-72
2023/06/21 11:10:42;;;;;;;5.00;4.22;;;;;;;;;;5014742;28;20041;-71
2023/06/21 11:13:08;;;;;;;7.88;4.80;;;;;;;;;;5016356;28;20067;-71
2023/06/21 11:15:37;;;;;;;7.30;4.40;;;;;;;;;;5013622;28;20391;-71
2023/06/21 11:18:07;;;;;;;7.53;4.18;;;;;;;;;;5015911;28;20428;-72
2023/06/21 11:20:49;;;;;;;5.07;3.83;;;;;;;;;;5016820;28;20071;-72
2023/06/21 11:23:17;;;;;;;6.43;4.63;;;;;;;;;;5017814;28;20585;-71
2023/06/21 11:25:58;;;;;;;9.52;4.88;;;;;;;;;;5016608;28;20053;-71
2023/06/21 11:28:29;;;;;;;4.60;3.97;;;;;;;;;;5019198;28;20068;-71
2023/06/21 11:31:03;;;;;;;5.00;3.88;;;;;;;;;;5016374;28;20022;-71
2023/06/21 11:33:44;;;;;;;6.72;4.30;;;;;;;;;;5013402;28;20053;-71
2023/06/21 11:36:09;;;;;;;5.68;3.92;;;;;;;;;;5018616;28;20037;-71
2023/06/21 11:38:36;;;;;;;6.60;3.92;;;;;;;;;;5017832;28;20203;-71
2023/06/21 11:41:41;;;;;;;6.35;4.10;;;;;;;;;;5018419;28;20029;-71
2023/06/21 11:44:08;;;;;;;5.88;4.30;;;;;;;;;;5020595;28;20557;-71
2023/06/21 11:46:33;;;;;;;6.85;3.90;;;;;;;;;;5016321;28;20109;-71
2023/06/21 11:49:00;;;;;;;5.68;3.92;;;;;;;;;;5026556;28;20060;-71
2023/06/21 11:51:28;;;;;;;4.22;3.55;;;;;;;;;;5036023;28;20049;-71
2023/06/21 11:53:55;;;;;;;4.22;3.53;;;;;;;;;;5035086;28;20090;-71
2023/06/21 11:56:21;;;;;;;4.93;3.72;;;;;;;;;;5026179;28;20037;-71
2023/06/21 11:58:48;;;;;;;5.95;3.78;;;;;;;;;;5022700;28;20045;-72
2023/06/21 12:01:14;;;;;;;5.75;3.53;;;;;;;;;;5009086;28;20021;-72
2023/06/21 12:03:40;;;;;;;3.85;3.20;;;;;;;;;;5015190;28;20120;-72
2023/06/21 12:06:06;;;;;;;5.53;3.35;;;;;;;;;;5021786;28;20056;-71
2023/06/21 12:08:32;;;;;;;5.72;3.35;;;;;;;;;;5018043;28;20046;-71
2023/06/21 12:11:01;;;;;;;6.00;3.53;;;;;;;;;;5027750;28;20462;-71
2023/06/21 12:13:27;;;;;;;4.57;3.25;;;;;;;;;;5020637;28;20470;-71
2023/06/21 12:15:54;;;;;;;5.28;3.60;;;;;;;;;;5017011;28;20059;-71
2023/06/21 12:18:20;;;;;;;6.95;3.60;;;;;;;;;;5013080;28;20088;-71
2023/06/21 12:20:47;;;;;;;4.72;3.85;;;;;;;;;;5016388;28;20046;-71
2023/06/21 12:23:13;;;;;;;5.20;3.70;;;;;;;;;;5017737;28;20557;-70
2023/06/21 12:25:45;;;;;;;3.95;2.67;;;;;;;;;;5027192;28;20033;-71
2023/06/21 12:28:13;;;;;;;4.88;3.15;;;;;;;;;;5027583;28;20072;-71
2023/06/21 12:31:01;;;;;;;5.57;2.70;;;;;;;;;;5028167;28;20056;-71
2023/06/21 12:33:53;;;;;;;14.25;3.25;;;;;;;;;;5027624;28;20529;-70
2023/06/21 12:36:25;;;;;;;4.90;2.97;;;;;;;;;;5027687;28;20045;-70
2023/06/21 12:38:57;;;;;;;3.92;2.95;;;;;;;;;;5022856;28;20048;-71
2023/06/21 12:41:26;;;;;;;4.78;2.80;;;;;;;;;;5013909;28;20046;-71
2023/06/21 12:43:53;;;;;;;4.55;2.90;;;;;;;;;;5026950;28;20064;-71
2023/06/21 12:46:20;;;;;;;5.13;3.15;;;;;;;;;;5024409;28;20030;-71
2023/06/21 12:48:49;;;;;;;5.50;2.80;;;;;;;;;;5019986;28;20022;-71
2023/06/21 12:51:33;;;;;;;4.22;2.63;;;;;;;;;;5027350;28;20059;-71
2023/06/21 12:54:12;;;;;;;3.38;2.65;;;;;;;;;;5027269;28;20037;-71
2023/06/21 12:56:40;;;;;;;4.88;2.80;;;;;;;;;;5016023;28;20033;-71
2023/06/21 12:59:06;;;;;;;4.55;2.72;;;;;;;;;;5027060;28;20045;-71
2023/06/21 13:01:33;;;;;;;2.95;2.60;;;;;;;;;;5027009;28;20032;-71
2023/06/21 13:04:03;;;;;;;2.92;2.60;;;;;;;;;;5027683;28;20041;-71
2023/06/21 13:06:28;;;;;;;4.25;2.78;;;;;;;;;;5023116;28;20041;-71
2023/06/21 13:08:54;;;;;;;3.42;2.50;;;;;;;;;;5027901;28;20111;-71
2023/06/21 13:11:21;;;;;;;4.00;2.70;;;;;;;;;;5027346;28;20034;-71
2023/06/21 13:13:46;;;;;;;2.92;2.33;;;;;;;;;;5028895;28;20572;-71
2023/06/21 13:16:14;;;;;;;4.47;2.83;;;;;;;;;;5032339;28;20013;-70
2023/06/21 13:18:44;;;;;;;4.15;2.58;;;;;;;;;;5040910;28;20037;-69
2023/06/21 13:21:10;;;;;;;4.57;2.20;;;;;;;;;;5014015;28;20430;-71
2023/06/21 13:23:35;;;;;;;6.72;2.70;;;;;;;;;;5026377;28;20092;-72
2023/06/21 13:26:01;;;;;;;4.13;2.95;;;;;;;;;;5025663;28;20494;-71
2023/06/21 13:28:26;;;;;;;7.28;2.50;;;;;;;;;;5026993;28;20517;-71
2023/06/21 13:30:52;;;;;;;3.60;2.50;;;;;;;;;;5026759;28;20026;-71
2023/06/21 13:33:17;;;;;;;3.40;2.10;;;;;;;;;;5026821;28;20033;-72
2023/06/21 13:35:42;;;;;;;3.00;2.25;;;;;;;;;;5026867;28;20037;-71
2023/06/21 13:38:09;;;;;;;3.25;2.40;;;;;;;;;;5026147;28;20695;-71
2023/06/21 13:40:35;;;;;;;3.05;2.25;;;;;;;;;;5026948;28;20030;-71
2023/06/21 13:43:00;;;;;;;7.80;2.42;;;;;;;;;;5024412;28;20029;-71
2023/06/21 13:45:26;;;;;;;4.22;2.45;;;;;;;;;;5026503;28;20502;-71
2023/06/21 13:47:51;;;;;;;3.63;2.40;;;;;;;;;;5026643;28;20470;-71
2023/06/21 13:50:16;;;;;;;3.17;2.47;;;;;;;;;;5025805;28;20072;-71
2023/06/21 13:52:42;;;;;;;3.85;2.47;;;;;;;;;;5026432;28;20033;-72
2023/06/21 13:55:12;;;;;;;3.17;2.10;;;;;;;;;;5025491;28;20399;-73
2023/06/21 13:57:41;;;;;;;2.58;2.00;;;;;;;;;;5026542;28;20029;-72
2023/06/21 14:00:13;;;;;;;3.08;2.13;;;;;;;;;;5026030;28;20033;-72
2023/06/21 14:02:42;;;;;;;2.72;2.20;;;;;;;;;;5019210;28;20041;-73
2023/06/21 14:05:09;;;;;;;2.80;2.30;;;;;;;;;;5017860;28;20046;-73
2023/06/21 14:07:39;;;;;;;2.88;2.30;;;;;;;;;;5025498;28;20034;-72
2023/06/21 14:10:05;;;;;;;3.58;2.67;;;;;;;;;;5025719;28;20069;-82
2023/06/21 14:12:31;;;;;;;5.70;2.30;;;;;;;;;;5017059;28;20022;-74
2023/06/21 14:14:57;;;;;;;3.03;2.33;;;;;;;;;;5025884;28;20037;-74
2023/06/21 14:17:22;;;;;;;2.85;2.40;;;;;;;;;;5025864;28;20766;-74
2023/06/21 14:19:48;;;;;;;3.35;1.98;;;;;;;;;;5025655;28;20033;-74
2023/06/21 14:22:14;;;;;;;3.00;2.20;;;;;;;;;;5026007;28;20021;-74
2023/06/21 14:24:39;;;;;;;4.22;2.10;;;;;;;;;;5025898;28;20028;-74
2023/06/21 14:27:05;;;;;;;3.75;2.08;;;;;;;;;;5025148;28;20045;-74
2023/06/21 14:29:30;;;;;;;4.20;2.30;;;;;;;;;;5022884;28;20052;-74